Time;durP1;ratioP1;P1;durP2;ratioP2;P2;SDS_P1;SDS_P2;PMS_P1;PMS_P2;Temp;Humidity;BMP_temperature;BMP_pressure;BME280_temperature;BME280_humidity;BME280_pressure;Samples;Min_cycle;Max_cycle;Signal;HPM_P1;HPM_P2
2024/04/01 00:01:35;;;;;;;46.50;33.28;;;10.10;99.90;;;;;;5054571;28;20040;-81
2024/04/01 00:04:01;;;;;;;42.35;33.90;;;10.10;99.90;;;;;;5058262;28;20037;-80
2024/04/01 00:06:26;;;;;;;45.65;31.70;;;10.10;99.90;;;;;;5064531;28;20106;-81
2024/04/01 00:08:52;;;;;;;44.95;31.92;;;10.00;99.90;;;;;;5047387;28;20096;-81
2024/04/01 00:11:18;;;;;;;46.03;33.85;;;9.90;99.90;;;;;;5051044;28;20040;-81
2024/04/01 00:13:43;;;;;;;55.45;36.03;;;9.90;99.90;;;;;;5051787;28;20045;-80
2024/04/01 00:16:09;;;;;;;57.88;35.40;;;9.80;99.90;;;;;;5041012;28;20133;-80
2024/04/01 00:18:34;;;;;;;51.35;33.15;;;9.80;99.90;;;;;;5027145;28;20124;-81
2024/04/01 00:21:00;;;;;;;47.67;31.55;;;9.80;99.90;;;;;;5050652;28;20403;-81
2024/04/01 00:23:26;;;;;;;47.47;29.52;;;9.70;99.90;;;;;;5041209;28;20120;-80
2024/04/01 00:25:51;;;;;;;38.90;28.92;;;9.70;99.90;;;;;;5038561;28;20048;-80
2024/04/01 00:28:17;;;;;;;38.83;26.75;;;9.60;99.90;;;;;;5047534;28;20523;-80
2024/04/01 00:30:42;;;;;;;38.70;25.77;;;9.70;99.90;;;;;;5047026;28;20040;-81
2024/04/01 00:33:09;;;;;;;37.45;25.10;;;9.60;99.90;;;;;;5052883;28;20037;-81
2024/04/01 00:35:41;;;;;;;34.70;25.15;;;9.60;99.90;;;;;;5044380;28;20033;-81
2024/04/01 00:38:07;;;;;;;36.83;25.70;;;9.70;99.90;;;;;;5040964;28;20124;-80
2024/04/01 00:40:35;;;;;;;33.17;24.90;;;9.70;99.90;;;;;;5033043;28;20076;-81
2024/04/01 00:43:10;;;;;;;31.85;23.83;;;9.90;99.90;;;;;;5049576;28;20040;-81
2024/04/01 00:45:43;;;;;;;36.22;24.95;;;9.70;99.90;;;;;;5052132;28;20112;-82
2024/04/01 00:48:10;;;;;;;29.20;22.48;;;9.70;99.90;;;;;;5051012;28;20056;-81
2024/04/01 00:50:37;;;;;;;30.88;22.42;;;9.70;99.90;;;;;;5063028;28;20123;-80
2024/04/01 00:53:05;;;;;;;36.20;24.83;;;9.70;99.90;;;;;;5039183;28;20496;-81
2024/04/01 00:55:32;;;;;;;34.97;23.90;;;9.80;99.90;;;;;;5033034;28;20378;-82
2024/04/01 00:58:00;;;;;;;29.48;22.15;;;9.80;99.90;;;;;;5033763;28;20472;-81
2024/04/01 01:00:26;;;;;;;28.13;21.95;;;9.80;99.90;;;;;;5062022;28;20045;-79
2024/04/01 01:02:53;;;;;;;30.38;21.33;;;9.80;99.90;;;;;;5056217;28;20037;-80
2024/04/01 01:05:19;;;;;;;29.80;20.13;;;9.80;99.90;;;;;;5049533;28;20067;-80
2024/04/01 01:07:45;;;;;;;28.25;20.05;;;9.80;99.90;;;;;;5048630;28;20049;-78
2024/04/01 01:10:11;;;;;;;25.75;17.60;;;9.80;99.90;;;;;;5046331;28;20068;-81
2024/04/01 01:12:37;;;;;;;28.30;19.05;;;9.70;99.90;;;;;;5036486;28;20045;-80
2024/04/01 01:15:04;;;;;;;24.67;19.10;;;9.70;99.90;;;;;;5041986;28;20049;-81
2024/04/01 01:17:31;;;;;;;26.52;17.55;;;9.70;99.90;;;;;;5047586;28;20037;-81
2024/04/01 01:19:56;;;;;;;25.65;17.65;;;9.70;99.90;;;;;;5041608;28;20052;-79
2024/04/01 01:22:35;;;;;;;25.05;18.38;;;9.70;99.90;;;;;;5049623;28;20040;-80
2024/04/01 01:25:01;;;;;;;24.20;16.38;;;9.60;99.90;;;;;;5051122;28;20049;-81
2024/04/01 01:27:27;;;;;;;24.58;18.20;;;9.60;99.90;;;;;;5043210;28;20619;-80
2024/04/01 01:29:53;;;;;;;28.15;17.50;;;9.60;99.90;;;;;;5046828;28;20507;-80
2024/04/01 01:32:19;;;;;;;26.90;15.90;;;9.60;99.90;;;;;;5050183;28;20060;-80
2024/04/01 01:34:46;;;;;;;24.48;16.50;;;9.60;99.90;;;;;;5066190;28;20118;-78
2024/04/01 01:37:12;;;;;;;23.63;16.15;;;9.60;99.90;;;;;;5050237;28;20053;-79
2024/04/01 01:39:37;;;;;;;19.95;15.55;;;9.60;99.90;;;;;;5045901;28;20472;-80
2024/04/01 01:42:03;;;;;;;25.58;16.00;;;9.50;99.90;;;;;;5049960;28;20077;-81
2024/04/01 01:44:29;;;;;;;24.45;15.77;;;9.50;99.90;;;;;;5048391;28;20404;-80
2024/04/01 01:46:54;;;;;;;21.92;15.93;;;9.50;99.90;;;;;;5047685;28;20044;-81
2024/04/01 01:49:20;;;;;;;22.33;15.85;;;9.40;99.90;;;;;;5046259;28;20041;-81
2024/04/01 01:51:47;;;;;;;26.02;15.80;;;9.20;99.90;;;;;;5049467;28;20048;-77
2024/04/01 01:54:12;;;;;;;24.98;16.38;;;9.10;99.90;;;;;;5060525;28;20026;-80
2024/04/01 01:56:38;;;;;;;26.13;17.63;;;9.70;99.90;;;;;;5046137;28;20110;-80
2024/04/01 01:59:03;;;;;;;23.95;16.38;;;8.90;99.90;;;;;;5046246;28;20076;-80
2024/04/01 02:01:29;;;;;;;24.80;16.98;;;8.80;99.90;;;;;;5040345;28;20041;-81
2024/04/01 02:03:55;;;;;;;29.70;18.00;;;8.80;99.90;;;;;;5047082;28;20416;-80
2024/04/01 02:06:20;;;;;;;22.73;17.33;;;8.60;99.90;;;;;;5048829;28;20045;-80
2024/04/01 02:08:46;;;;;;;23.25;16.80;;;8.50;99.90;;;;;;5043275;28;20134;-80
2024/04/01 02:11:12;;;;;;;24.33;16.77;;;8.50;99.90;;;;;;5049274;28;20178;-80
2024/04/01 02:13:39;;;;;;;52.85;21.48;;;8.30;99.90;;;;;;5051063;28;20101;-80
2024/04/01 02:16:09;;;;;;;22.52;16.45;;;8.30;99.90;;;;;;5064871;28;20045;-80
2024/04/01 02:18:35;;;;;;;23.95;17.08;;;8.20;99.90;;;;;;5049009;28;20175;-80
2024/04/01 02:21:01;;;;;;;23.80;17.48;;;8.20;99.90;;;;;;5041324;28;20506;-81
2024/04/01 02:23:33;;;;;;;23.70;17.13;;;8.20;99.90;;;;;;5037021;28;20044;-80
2024/04/01 02:26:02;;;;;;;24.98;18.38;;;8.20;99.90;;;;;;5038346;28;20052;-80
2024/04/01 02:28:31;;;;;;;24.75;19.48;;;8.20;99.90;;;;;;5049316;28;20040;-80
2024/04/01 02:30:57;;;;;;;26.63;17.92;;;8.10;99.90;;;;;;5049540;28;20424;-79
2024/04/01 02:33:23;;;;;;;28.52;18.90;;;8.10;99.90;;;;;;5044105;28;20080;-80
2024/04/01 02:35:50;;;;;;;33.65;21.52;;;8.10;99.90;;;;;;5049477;28;20091;-80
2024/04/01 02:38:17;;;;;;;30.48;18.52;;;8.00;99.90;;;;;;5043120;28;20136;-80
2024/04/01 02:40:42;;;;;;;31.15;20.80;;;8.00;99.90;;;;;;5040182;28;20060;-80
2024/04/01 02:43:08;;;;;;;27.67;20.38;;;8.00;99.90;;;;;;5049056;28;20053;-80
2024/04/01 02:45:33;;;;;;;32.15;23.08;;;7.90;99.90;;;;;;5044098;28;20045;-80
2024/04/01 02:47:59;;;;;;;39.22;22.40;;;8.00;99.90;;;;;;5048811;28;20037;-79
2024/04/01 02:50:25;;;;;;;31.40;22.48;;;8.00;99.90;;;;;;5053358;28;20041;-81
2024/04/01 02:52:50;;;;;;;215.48;38.55;;;8.60;99.90;;;;;;5053510;28;20459;-80
2024/04/01 02:55:18;;;;;;;33.85;23.13;;;7.90;99.90;;;;;;5043150;28;20047;-80
2024/04/01 02:57:44;;;;;;;33.63;20.85;;;7.90;99.90;;;;;;5053264;28;20140;-80
2024/04/01 03:00:16;;;;;;;37.90;23.92;;;7.90;99.90;;;;;;5053789;28;20141;-79
2024/04/01 03:02:44;;;;;;;35.20;22.42;;;7.90;99.90;;;;;;5048365;28;20045;-80
2024/04/01 03:05:10;;;;;;;31.58;21.05;;;7.90;99.90;;;;;;5064139;28;20436;-79
2024/04/01 03:07:36;;;;;;;79.90;30.77;;;8.00;99.90;;;;;;5052846;28;20040;-80
2024/04/01 03:10:02;;;;;;;159.52;32.90;;;8.00;99.90;;;;;;5053521;28;20045;-80
2024/04/01 03:12:27;;;;;;;34.40;22.92;;;7.90;99.90;;;;;;5046482;28;20284;-80
2024/04/01 03:14:53;;;;;;;31.85;23.35;;;7.90;99.90;;;;;;5069181;28;20049;-81
2024/04/01 03:17:19;;;;;;;38.15;23.33;;;7.90;99.90;;;;;;5042444;28;20530;-81
2024/04/01 03:19:45;;;;;;;30.85;21.27;;;8.00;99.90;;;;;;5053235;28;20409;-80
2024/04/01 03:22:10;;;;;;;31.48;22.17;;;8.00;99.90;;;;;;5053223;28;20758;-80
2024/04/01 03:24:36;;;;;;;37.42;24.80;;;7.90;99.90;;;;;;5052861;28;20051;-79
2024/04/01 03:27:02;;;;;;;37.08;24.10;;;7.90;99.90;;;;;;5066779;28;20564;-80
2024/04/01 03:29:27;;;;;;;39.60;25.77;;;7.90;99.90;;;;;;5052432;28;20033;-80
2024/04/01 03:31:53;;;;;;;40.03;24.83;;;7.90;99.90;;;;;;5051682;28;20064;-80
2024/04/01 03:34:19;;;;;;;36.45;24.27;;;8.00;99.90;;;;;;5053165;28;20041;-79
2024/04/01 03:36:45;;;;;;;32.08;22.00;;;8.00;99.90;;;;;;5052780;28;20339;-80
2024/04/01 03:39:13;;;;;;;34.60;23.95;;;8.10;99.90;;;;;;5054675;28;20037;-80
2024/04/01 03:41:39;;;;;;;39.60;24.20;;;8.10;99.90;;;;;;5052806;28;20064;-80
2024/04/01 03:44:05;;;;;;;29.88;22.75;;;8.00;99.90;;;;;;5042975;28;20575;-80
2024/04/01 03:46:31;;;;;;;35.45;24.65;;;7.90;99.90;;;;;;5069548;28;20041;-80
2024/04/01 03:48:57;;;;;;;34.85;25.02;;;7.90;99.90;;;;;;5053855;28;20095;-79
2024/04/01 03:51:23;;;;;;;35.08;25.02;;;7.90;99.90;;;;;;5038497;28;20057;-80
2024/04/01 03:53:48;;;;;;;35.22;23.88;;;7.80;99.90;;;;;;5036319;28;20493;-80
2024/04/01 03:56:14;;;;;;;34.38;22.90;;;7.90;99.90;;;;;;5051214;28;20076;-80
2024/04/01 03:58:39;;;;;;;29.10;21.48;;;7.80;99.90;;;;;;5048867;28;20075;-80
2024/04/01 04:01:05;;;;;;;58.72;25.67;;;7.70;99.90;;;;;;5045069;28;20049;-79
2024/04/01 04:03:30;;;;;;;34.88;22.13;;;7.70;99.90;;;;;;5052993;28;20940;-80
2024/04/01 04:05:56;;;;;;;24.50;16.05;;;7.60;99.90;;;;;;5051034;28;20546;-80
2024/04/01 04:08:22;;;;;;;28.48;19.20;;;7.70;99.90;;;;;;5052180;28;20032;-80
2024/04/01 04:10:47;;;;;;;28.35;18.27;;;7.60;99.90;;;;;;5053934;28;20093;-79
2024/04/01 04:13:14;;;;;;;25.38;18.17;;;7.60;99.90;;;;;;5051048;28;20119;-81
2024/04/01 04:15:40;;;;;;;23.33;17.55;;;7.60;99.90;;;;;;5056132;28;20052;-79
2024/04/01 04:18:05;;;;;;;25.58;18.73;;;7.60;99.90;;;;;;5048636;28;20045;-79
2024/04/01 04:20:31;;;;;;;25.88;18.77;;;8.00;99.90;;;;;;5069928;28;20404;-80
2024/04/01 04:22:57;;;;;;;21.75;16.83;;;7.50;99.90;;;;;;5051701;28;20045;-79
2024/04/01 04:25:22;;;;;;;19.45;13.85;;;7.40;99.90;;;;;;5064239;28;20045;-80
2024/04/01 04:27:48;;;;;;;14.13;11.70;;;7.30;99.90;;;;;;5052160;28;20052;-81
2024/04/01 04:30:13;;;;;;;17.25;13.00;;;7.30;99.90;;;;;;5052449;28;20123;-80
2024/04/01 04:32:43;;;;;;;14.85;12.43;;;7.30;99.90;;;;;;5052404;28;20040;-80
2024/04/01 04:35:09;;;;;;;22.75;16.02;;;7.30;99.90;;;;;;5052370;28;20234;-80
2024/04/01 04:37:37;;;;;;;24.67;16.42;;;7.30;99.90;;;;;;5038269;28;20500;-80
2024/04/01 04:40:10;;;;;;;23.63;16.88;;;7.30;99.90;;;;;;5039712;28;20433;-80
2024/04/01 04:42:35;;;;;;;24.90;16.52;;;7.30;99.90;;;;;;5048962;28;20056;-80
2024/04/01 04:45:01;;;;;;;28.55;19.15;;;7.30;99.90;;;;;;5052402;28;20040;-80
2024/04/01 04:47:26;;;;;;;54.15;19.80;;;7.30;99.90;;;;;;5068939;28;20033;-79
2024/04/01 04:49:52;;;;;;;31.00;17.40;;;7.30;99.90;;;;;;5051931;28;20041;-80
2024/04/01 04:52:18;;;;;;;27.92;18.08;;;7.20;99.90;;;;;;5050244;28;20484;-80
2024/04/01 04:54:43;;;;;;;25.17;18.25;;;7.20;99.90;;;;;;5039518;28;20077;-80
2024/04/01 04:57:09;;;;;;;26.20;17.90;;;7.10;99.90;;;;;;5068431;28;20112;-80
2024/04/01 04:59:34;;;;;;;31.90;18.25;;;7.10;99.90;;;;;;5052109;28;20045;-80
2024/04/01 05:02:06;;;;;;;145.88;29.63;;;7.00;99.90;;;;;;5061179;28;20033;-80
2024/04/01 05:04:33;;;;;;;201.90;34.58;;;6.90;99.90;;;;;;5052369;28;20041;-79
2024/04/01 05:06:59;;;;;;;20.13;15.30;;;6.90;99.90;;;;;;5045557;28;20072;-78
2024/04/01 05:09:25;;;;;;;22.25;15.30;;;6.90;99.90;;;;;;5067082;28;20072;-79
2024/04/01 05:11:50;;;;;;;21.38;15.27;;;6.90;99.90;;;;;;5059562;28;20071;-80
2024/04/01 05:14:16;;;;;;;22.35;17.08;;;6.90;99.90;;;;;;5081296;28;20047;-80
2024/04/01 05:16:42;;;;;;;24.00;17.55;;;6.90;99.90;;;;;;5054556;28;20045;-80
2024/04/01 05:19:07;;;;;;;24.73;17.73;;;7.00;99.90;;;;;;5060903;28;20053;-80
2024/04/01 05:21:33;;;;;;;19.98;14.98;;;7.00;99.90;;;;;;5064018;28;20040;-80
2024/04/01 05:23:58;;;;;;;25.65;19.15;;;7.00;99.90;;;;;;5061607;28;20045;-80
2024/04/01 05:26:24;;;;;;;50.45;20.15;;;7.00;99.90;;;;;;5057110;28;20029;-80
2024/04/01 05:28:50;;;;;;;36.38;18.02;;;7.00;99.90;;;;;;5063641;28;20037;-79
2024/04/01 05:31:15;;;;;;;196.45;27.52;;;6.90;99.90;;;;;;5060559;28;20040;-80
2024/04/01 05:33:41;;;;;;;32.72;15.90;;;6.80;99.90;;;;;;5059919;28;20070;-80
2024/04/01 05:36:07;;;;;;;33.97;18.75;;;6.80;99.90;;;;;;5062473;28;20056;-80
2024/04/01 05:38:33;;;;;;;123.85;30.20;;;7.20;99.90;;;;;;5062953;28;20108;-79
2024/04/01 05:40:58;;;;;;;172.65;34.58;;;6.80;99.90;;;;;;5063538;28;20041;-80
2024/04/01 05:43:24;;;;;;;154.98;30.83;;;6.80;99.90;;;;;;5055311;28;20044;-81
2024/04/01 05:45:49;;;;;;;30.65;19.45;;;6.80;99.90;;;;;;5056111;28;20048;-80
2024/04/01 05:48:16;;;;;;;31.52;24.10;;;6.80;99.90;;;;;;5054160;28;20041;-80
2024/04/01 05:50:52;;;;;;;34.50;24.27;;;6.80;99.90;;;;;;5061987;28;20041;-80
2024/04/01 05:53:18;;;;;;;34.13;25.52;;;6.80;99.90;;;;;;5045470;28;20056;-80
2024/04/01 05:55:44;;;;;;;35.70;25.25;;;6.90;99.90;;;;;;5061099;28;20102;-80
2024/04/01 05:58:10;;;;;;;40.03;29.20;;;6.90;99.90;;;;;;5058405;28;20047;-80
2024/04/01 06:00:36;;;;;;;33.33;24.00;;;7.00;99.90;;;;;;5051424;28;20041;-80
2024/04/01 06:03:02;;;;;;;27.52;20.42;;;7.10;99.90;;;;;;5076011;28;20071;-80
2024/04/01 06:05:28;;;;;;;30.90;21.80;;;7.10;99.90;;;;;;5054401;28;20041;-79
2024/04/01 06:07:57;;;;;;;33.40;24.85;;;7.10;99.90;;;;;;5072446;28;20048;-80
2024/04/01 06:10:22;;;;;;;43.35;29.88;;;7.20;99.90;;;;;;5057233;28;20060;-80
2024/04/01 06:12:48;;;;;;;36.42;26.55;;;7.40;99.90;;;;;;5052759;28;20094;-80
2024/04/01 06:15:14;;;;;;;44.95;30.13;;;7.30;99.90;;;;;;5062693;28;20049;-80
2024/04/01 06:17:40;;;;;;;44.03;30.73;;;7.30;99.90;;;;;;5075938;28;20036;-80
2024/04/01 06:20:07;;;;;;;41.40;29.33;;;7.40;99.90;;;;;;5057088;28;20055;-79
2024/04/01 06:22:33;;;;;;;38.88;28.40;;;7.40;99.90;;;;;;5078579;28;20507;-80
2024/04/01 06:24:58;;;;;;;43.35;29.65;;;7.40;99.90;;;;;;5052191;28;20041;-81
2024/04/01 06:27:24;;;;;;;40.95;29.25;;;7.50;99.90;;;;;;5050770;28;20086;-80
2024/04/01 06:29:49;;;;;;;40.85;30.50;;;7.50;99.90;;;;;;5061587;28;20067;-79
2024/04/01 06:32:15;;;;;;;39.55;29.45;;;7.60;99.90;;;;;;5055536;28;20059;-80
2024/04/01 06:34:40;;;;;;;44.45;31.92;;;7.60;99.90;;;;;;5059067;28;20047;-81
2024/04/01 06:37:06;;;;;;;46.17;31.88;;;7.60;99.90;;;;;;5061839;28;20033;-80
2024/04/01 06:39:32;;;;;;;44.60;31.45;;;7.70;99.90;;;;;;5049935;28;20036;-78
2024/04/01 06:41:57;;;;;;;45.20;32.47;;;7.70;99.90;;;;;;5060689;28;20067;-80
2024/04/01 06:44:23;;;;;;;39.50;30.13;;;7.70;99.90;;;;;;5051420;28;20133;-80
2024/04/01 06:46:51;;;;;;;50.53;32.97;;;7.80;99.90;;;;;;5074486;28;20046;-79
2024/04/01 06:49:17;;;;;;;47.25;34.15;;;7.90;99.90;;;;;;5053223;28;20098;-80
2024/04/01 06:51:42;;;;;;;44.90;35.83;;;7.90;99.90;;;;;;5077897;28;20572;-80
2024/04/01 06:54:08;;;;;;;48.10;33.42;;;7.90;99.90;;;;;;5042833;28;20044;-79
2024/04/01 06:56:33;;;;;;;42.90;33.08;;;8.00;99.90;;;;;;5058358;28;20072;-80
2024/04/01 06:58:59;;;;;;;46.42;33.30;;;8.00;99.90;;;;;;5079084;28;20037;-80
2024/04/01 07:01:25;;;;;;;45.13;34.20;;;8.00;99.90;;;;;;5058961;28;20069;-79
2024/04/01 07:03:51;;;;;;;52.60;34.42;;;8.00;99.90;;;;;;5052922;28;20040;-79
2024/04/01 07:06:18;;;;;;;51.72;34.20;;;8.10;99.90;;;;;;5070203;28;20594;-80
2024/04/01 07:08:43;;;;;;;52.08;36.03;;;8.10;99.90;;;;;;5054238;28;20126;-79
2024/04/01 07:11:09;;;;;;;49.00;35.90;;;8.30;99.90;;;;;;5054732;28;20037;-80
2024/04/01 07:13:34;;;;;;;49.08;36.08;;;8.30;99.90;;;;;;5076661;28;20065;-79
2024/04/01 07:16:06;;;;;;;47.75;35.70;;;8.30;99.90;;;;;;5069201;28;20029;-80
2024/04/01 07:18:35;;;;;;;45.45;35.17;;;8.40;99.90;;;;;;5061807;28;20060;-80
2024/04/01 07:21:03;;;;;;;49.38;35.05;;;8.50;99.90;;;;;;5063481;28;20092;-79
2024/04/01 07:23:28;;;;;;;44.25;33.38;;;8.50;99.90;;;;;;5061168;28;20511;-80
2024/04/01 07:25:54;;;;;;;44.10;33.35;;;8.60;99.90;;;;;;5052258;28;20061;-80
2024/04/01 07:28:19;;;;;;;44.25;34.15;;;8.60;99.90;;;;;;5047101;28;20036;-80
2024/04/01 07:30:45;;;;;;;41.42;32.95;;;8.70;99.90;;;;;;5047077;28;20041;-78
2024/04/01 07:33:10;;;;;;;46.28;33.92;;;8.70;99.90;;;;;;5050185;28;20124;-81
2024/04/01 07:35:36;;;;;;;47.50;33.65;;;8.70;99.90;;;;;;5056476;28;20045;-80
2024/04/01 07:38:02;;;;;;;49.67;36.40;;;8.80;99.90;;;;;;5049893;28;20036;-79
2024/04/01 07:40:27;;;;;;;45.55;35.13;;;8.90;99.90;;;;;;5055008;28;20037;-79
2024/04/01 07:42:53;;;;;;;45.35;34.10;;;8.90;99.90;;;;;;5058811;28;20049;-80
2024/04/01 07:45:18;;;;;;;43.45;34.10;;;8.90;99.90;;;;;;5062555;28;20043;-80
2024/04/01 07:47:44;;;;;;;49.65;37.88;;;9.00;99.90;;;;;;5059395;28;20029;-80
2024/04/01 07:50:10;;;;;;;47.92;35.85;;;9.00;99.90;;;;;;5060690;28;20041;-79
2024/04/01 07:52:36;;;;;;;48.20;35.15;;;9.10;99.90;;;;;;5050963;28;20461;-80
2024/04/01 07:55:02;;;;;;;51.22;36.35;;;9.10;99.90;;;;;;5057529;28;20088;-78
2024/04/01 07:57:30;;;;;;;46.28;33.50;;;9.10;99.90;;;;;;5066438;28;20321;-80
2024/04/01 07:59:57;;;;;;;41.08;32.63;;;9.10;99.90;;;;;;5074156;28;20071;-79
2024/04/01 08:02:23;;;;;;;42.10;31.77;;;9.20;99.90;;;;;;5047990;28;20042;-79
2024/04/01 08:04:49;;;;;;;42.78;32.63;;;9.20;99.90;;;;;;5051649;28;20046;-79
2024/04/01 08:07:14;;;;;;;39.95;31.67;;;9.20;99.90;;;;;;5067522;28;20041;-78
2024/04/01 08:09:41;;;;;;;40.17;32.58;;;9.30;99.90;;;;;;5054074;28;20037;-80
2024/04/01 08:12:07;;;;;;;44.17;32.50;;;9.30;99.90;;;;;;5083676;28;20048;-80
2024/04/01 08:14:33;;;;;;;43.55;31.77;;;9.40;99.90;;;;;;5065779;28;20037;-78
2024/04/01 08:16:59;;;;;;;43.63;32.60;;;9.40;99.90;;;;;;5067909;28;20055;-79
2024/04/01 08:19:26;;;;;;;36.40;30.38;;;9.50;99.90;;;;;;5051173;28;20036;-80
2024/04/01 08:21:51;;;;;;;37.10;30.58;;;9.50;99.90;;;;;;5055985;28;20044;-78
2024/04/01 08:24:17;;;;;;;49.90;31.50;;;9.60;99.90;;;;;;5065617;28;20052;-80
2024/04/01 08:26:44;;;;;;;41.30;32.05;;;9.60;99.90;;;;;;5053750;28;20037;-78
2024/04/01 08:29:09;;;;;;;37.55;30.48;;;9.60;99.90;;;;;;5059877;28;20035;-79
2024/04/01 08:31:35;;;;;;;38.97;28.85;;;9.60;99.90;;;;;;5067608;28;20072;-79
2024/04/01 08:34:01;;;;;;;37.70;29.25;;;9.60;99.90;;;;;;5061175;28;20124;-80
2024/04/01 08:36:26;;;;;;;37.58;30.13;;;9.60;99.90;;;;;;5051585;28;20037;-78
2024/04/01 08:38:52;;;;;;;38.35;28.70;;;9.70;99.90;;;;;;5051460;28;20140;-79
2024/04/01 08:41:32;;;;;;;38.20;29.55;;;9.70;99.90;;;;;;5058477;28;20067;-79
2024/04/01 08:44:16;;;;;;;38.60;29.40;;;9.80;99.90;;;;;;5082655;28;20041;-80
2024/04/01 08:46:48;;;;;;;37.38;28.42;;;9.80;99.90;;;;;;5062984;28;20037;-80
2024/04/01 08:49:14;;;;;;;35.65;27.15;;;9.90;99.90;;;;;;5054766;28;20053;-78
2024/04/01 08:51:42;;;;;;;40.13;31.33;;;10.00;99.90;;;;;;5054711;28;20057;-80
2024/04/01 08:54:09;;;;;;;36.38;28.63;;;10.00;99.90;;;;;;5047306;28;20041;-79
2024/04/01 08:56:40;;;;;;;35.78;28.40;;;10.00;99.90;;;;;;5047974;28;20084;-80
2024/04/01 08:59:09;;;;;;;35.30;25.10;;;10.00;99.90;;;;;;5048520;28;20073;-79
2024/04/01 09:01:35;;;;;;;33.28;25.33;;;10.10;99.90;;;;;;5043929;28;20049;-80
2024/04/01 09:04:02;;;;;;;31.27;25.10;;;10.10;99.90;;;;;;5064355;28;20052;-78
2024/04/01 09:06:29;;;;;;;31.73;26.02;;;10.20;99.90;;;;;;5048580;28;20115;-79
2024/04/01 09:08:55;;;;;;;34.00;24.80;;;10.40;99.90;;;;;;5062860;28;20051;-80
2024/04/01 09:11:25;;;;;;;33.90;24.13;;;10.30;99.90;;;;;;5063726;28;20032;-80
2024/04/01 09:13:51;;;;;;;32.05;25.75;;;10.30;99.90;;;;;;5058677;28;20052;-80
2024/04/01 09:16:25;;;;;;;30.10;23.92;;;10.40;99.90;;;;;;5054435;28;20049;-79
2024/04/01 09:18:51;;;;;;;29.83;24.40;;;10.40;99.90;;;;;;5054979;28;20124;-80
2024/04/01 09:21:19;;;;;;;42.13;25.20;;;10.50;99.90;;;;;;5059985;28;20084;-79
2024/04/01 09:23:44;;;;;;;28.98;23.42;;;10.50;99.90;;;;;;5062659;28;20044;-79
2024/04/01 09:26:10;;;;;;;29.48;22.50;;;10.60;99.90;;;;;;5078448;28;20036;-80
2024/04/01 09:28:36;;;;;;;34.72;23.80;;;10.60;99.90;;;;;;5061705;28;20113;-80
2024/04/01 09:31:02;;;;;;;28.13;20.38;;;10.70;99.90;;;;;;5063848;28;20037;-80
2024/04/01 09:33:28;;;;;;;26.17;21.10;;;10.80;99.90;;;;;;5064340;28;20138;-79
2024/04/01 09:35:54;;;;;;;26.05;19.20;;;10.80;99.90;;;;;;5062709;28;20051;-80
2024/04/01 09:38:20;;;;;;;29.25;20.15;;;10.80;99.90;;;;;;5059356;28;20033;-80
2024/04/01 09:40:50;;;;;;;29.77;20.02;;;10.80;99.90;;;;;;5056096;28;20607;-77
2024/04/01 09:43:22;;;;;;;28.17;19.90;;;10.90;99.90;;;;;;5047524;28;20457;-79
2024/04/01 09:45:47;;;;;;;27.02;19.75;;;10.80;99.90;;;;;;5062462;28;20584;-79
2024/04/01 09:48:14;;;;;;;24.73;19.83;;;10.90;99.90;;;;;;5048805;28;20037;-78
2024/04/01 09:50:42;;;;;;;23.40;19.00;;;10.90;99.90;;;;;;5060784;28;20033;-79
2024/04/01 09:53:08;;;;;;;26.75;20.40;;;10.90;99.90;;;;;;5061139;28;20183;-79
2024/04/01 09:55:50;;;;;;;24.00;19.52;;;10.90;99.90;;;;;;5060475;28;20079;-79
2024/04/01 09:58:26;;;;;;;25.70;21.02;;;11.00;99.90;;;;;;5061574;28;20049;-80
2024/04/01 10:01:32;;;;;;;25.02;19.33;;;11.00;99.90;;;;;;5053001;28;20071;-80
2024/04/01 10:04:32;;;;;;;28.10;19.42;;;11.00;99.90;;;;;;5048647;28;20037;-80
2024/04/01 10:07:34;;;;;;;24.25;19.08;;;11.00;99.90;;;;;;5073455;28;20049;-79
2024/04/01 10:10:51;;;;;;;25.90;19.73;;;11.00;99.90;;;;;;5052475;28;20110;-80
2024/04/01 10:13:44;;;;;;;27.50;19.67;;;11.00;99.90;;;;;;5061298;28;20049;-79
2024/04/01 10:16:38;;;;;;;25.60;20.48;;;11.00;99.90;;;;;;5045524;28;20076;-79
2024/04/01 10:19:43;;;;;;;23.40;18.63;;;10.90;99.90;;;;;;5059625;28;20053;-79
2024/04/01 10:22:46;;;;;;;27.77;19.30;;;11.00;99.90;;;;;;5067230;28;20083;-80
2024/04/01 10:25:31;;;;;;;24.63;20.15;;;11.00;99.90;;;;;;5050322;28;20539;-79
2024/04/01 10:28:27;;;;;;;24.58;19.25;;;11.10;99.90;;;;;;5058311;28;20037;-79
2024/04/01 10:31:16;;;;;;;24.83;19.85;;;11.20;99.90;;;;;;5047714;28;20049;-79
2024/04/01 10:34:00;;;;;;;25.83;19.40;;;11.20;99.90;;;;;;5059522;28;20076;-80
2024/04/01 10:36:42;;;;;;;21.63;18.00;;;11.10;99.90;;;;;;5061132;28;20045;-78
2024/04/01 10:39:36;;;;;;;22.35;18.08;;;11.20;99.90;;;;;;5042452;28;20139;-79
2024/04/01 10:42:25;;;;;;;21.83;17.30;;;11.20;99.90;;;;;;5061548;28;20089;-79
2024/04/01 10:45:09;;;;;;;21.42;17.67;;;11.30;99.90;;;;;;5055310;28;20081;-80
2024/04/01 10:48:14;;;;;;;23.92;18.67;;;11.30;99.90;;;;;;5051147;28;20044;-79
2024/04/01 10:50:57;;;;;;;26.42;19.92;;;11.40;99.90;;;;;;5056771;28;20063;-80
2024/04/01 10:53:39;;;;;;;26.45;19.13;;;11.50;99.90;;;;;;5058082;28;20037;-79
2024/04/01 10:56:37;;;;;;;26.85;19.05;;;11.50;99.90;;;;;;5055773;28;20056;-79
2024/04/01 10:59:36;;;;;;;28.33;20.60;;;11.60;99.90;;;;;;5056063;28;20080;-80
2024/04/01 11:02:36;;;;;;;25.63;20.40;;;11.60;99.90;;;;;;5053356;28;20129;-79
2024/04/01 11:05:02;;;;;;;24.20;19.05;;;11.70;99.90;;;;;;5070962;28;20034;-79
2024/04/01 11:07:42;;;;;;;24.30;19.60;;;11.70;99.90;;;;;;5035928;28;20192;-79
2024/04/01 11:10:20;;;;;;;24.10;19.58;;;11.70;99.90;;;;;;5039633;28;20045;-80
2024/04/01 11:13:06;;;;;;;25.48;20.17;;;11.70;99.90;;;;;;5039331;28;20120;-78
2024/04/01 11:15:32;;;;;;;23.88;19.08;;;11.70;99.90;;;;;;5046331;28;20047;-79
2024/04/01 11:18:27;;;;;;;24.70;19.02;;;11.70;99.90;;;;;;5056950;28;20049;-79
2024/04/01 11:21:26;;;;;;;24.60;19.38;;;11.60;99.90;;;;;;5055845;28;20053;-80
2024/04/01 11:24:02;;;;;;;25.02;19.63;;;11.60;99.90;;;;;;5014451;28;20053;-80
2024/04/01 11:27:19;;;;;;;25.02;18.73;;;11.60;99.90;;;;;;5045773;28;20044;-79
2024/04/01 11:30:09;;;;;;;24.90;20.50;;;11.60;99.90;;;;;;5067935;28;20370;-80
2024/04/01 11:32:38;;;;;;;27.45;22.20;;;11.60;99.90;;;;;;5033483;28;20037;-80
2024/04/01 11:35:07;;;;;;;25.77;20.55;;;11.70;99.90;;;;;;5056614;28;20053;-80
2024/04/01 11:37:49;;;;;;;24.20;19.35;;;11.70;99.90;;;;;;5053466;28;20075;-79
2024/04/01 11:40:19;;;;;;;25.33;19.27;;;11.80;99.90;;;;;;5050970;28;20433;-79
2024/04/01 11:42:52;;;;;;;28.58;21.10;;;11.80;99.90;;;;;;5055947;28;20600;-77
2024/04/01 11:45:19;;;;;;;29.23;21.73;;;11.80;99.90;;;;;;5055416;28;20037;-80
2024/04/01 11:47:48;;;;;;;30.27;22.02;;;11.80;99.90;;;;;;5056493;28;20567;-80
2024/04/01 11:50:18;;;;;;;32.90;23.02;;;11.80;99.90;;;;;;5050513;28;20321;-80
2024/04/01 11:52:44;;;;;;;31.90;23.42;;;11.80;99.90;;;;;;5047878;28;20041;-80
2024/04/01 11:55:14;;;;;;;29.40;22.38;;;11.80;99.90;;;;;;5056815;28;20043;-80
2024/04/01 11:57:39;;;;;;;31.95;22.83;;;11.70;99.90;;;;;;5053014;28;20045;-80
2024/04/01 12:00:09;;;;;;;30.95;21.50;;;11.70;99.90;;;;;;5054763;28;20553;-77
2024/04/01 12:02:35;;;;;;;29.95;21.20;;;11.70;99.90;;;;;;5056032;28;20052;-80
2024/04/01 12:05:05;;;;;;;29.23;21.00;;;11.60;99.90;;;;;;5039352;28;20050;-80
2024/04/01 12:07:33;;;;;;;29.23;20.38;;;11.60;99.90;;;;;;5044514;28;20029;-81
2024/04/01 12:10:04;;;;;;;26.30;19.33;;;11.60;99.90;;;;;;5059479;28;20119;-80
2024/04/01 12:12:30;;;;;;;27.73;19.63;;;11.60;99.90;;;;;;5052828;28;20025;-80
2024/04/01 12:14:56;;;;;;;25.30;19.80;;;11.50;99.90;;;;;;5056211;28;20039;-80
2024/04/01 12:17:21;;;;;;;26.52;19.60;;;11.50;99.90;;;;;;5055187;28;20037;-79
2024/04/01 12:19:47;;;;;;;24.88;19.25;;;11.50;99.90;;;;;;5071477;28;20412;-80
2024/04/01 12:22:13;;;;;;;26.52;19.05;;;11.60;99.90;;;;;;5074568;28;20041;-80
2024/04/01 12:24:43;;;;;;;23.25;16.63;;;11.60;99.90;;;;;;5055644;28;20072;-81
2024/04/01 12:27:09;;;;;;;22.48;16.30;;;11.70;99.90;;;;;;5054914;28;20045;-79
2024/04/01 12:29:36;;;;;;;17.90;14.27;;;11.70;99.90;;;;;;5055155;28;20040;-80
2024/04/01 12:32:02;;;;;;;19.30;14.52;;;11.70;99.90;;;;;;5051340;28;20041;-81
2024/04/01 12:34:37;;;;;;;19.88;14.60;;;11.70;99.90;;;;;;5054713;28;20067;-80
2024/04/01 12:37:03;;;;;;;18.13;14.38;;;11.70;99.90;;;;;;5055478;28;20041;-80
2024/04/01 12:39:30;;;;;;;19.65;14.98;;;11.60;99.90;;;;;;5055213;28;20436;-80
2024/04/01 12:41:56;;;;;;;18.55;14.68;;;11.60;99.90;;;;;;5054688;28;20045;-80
2024/04/01 12:44:23;;;;;;;20.40;13.15;;;12.00;99.90;;;;;;5056665;28;20045;-77